Time;durP1;ratioP1;P1;durP2;ratioP2;P2;SDS_P1;SDS_P2;PMS_P1;PMS_P2;Temp;Humidity;BMP_temperature;BMP_pressure;BME280_temperature;BME280_humidity;BME280_pressure;Samples;Min_cycle;Max_cycle;Signal;HPM_P1;HPM_P2
2022/04/20 00:00:05;;;;;;;0.80;0.80;;;;;;;;;;5116367;27;20261;-57
2022/04/20 00:02:52;;;;;;;0.57;0.57;;;;;;;;;;5105190;27;20211;-56
2022/04/20 00:05:39;;;;;;;0.77;0.60;;;;;;;;;;5119346;27;20218;-56
2022/04/20 00:08:26;;;;;;;0.50;0.50;;;;;;;;;;5120002;27;20235;-56
2022/04/20 00:11:14;;;;;;;1.07;0.70;;;;;;;;;;5125177;27;20234;-56
2022/04/20 00:14:01;;;;;;;0.87;0.87;;;;;;;;;;5120973;27;20229;-56
2022/04/20 00:16:48;;;;;;;0.60;0.60;;;;;;;;;;5126953;27;20286;-57
2022/04/20 00:19:35;;;;;;;0.60;0.60;;;;;;;;;;5112002;27;20365;-56
2022/04/20 00:22:22;;;;;;;0.60;0.60;;;;;;;;;;5110588;27;20356;-57
2022/04/20 00:25:09;;;;;;;0.60;0.60;;;;;;;;;;5116477;27;20298;-56
2022/04/20 00:27:58;;;;;;;0.53;0.53;;;;;;;;;;5117435;27;20261;-56
2022/04/20 00:30:45;;;;;;;0.50;0.50;;;;;;;;;;5084044;28;20568;-56
2022/04/20 00:33:32;;;;;;;0.60;0.60;;;;;;;;;;5098288;27;20313;-56
2022/04/20 00:36:19;;;;;;;0.90;0.63;;;;;;;;;;5118194;27;20248;-56
2022/04/20 00:39:06;;;;;;;0.50;0.50;;;;;;;;;;5115024;27;20270;-56
2022/04/20 00:41:53;;;;;;;0.70;0.70;;;;;;;;;;5117493;27;20252;-56
2022/04/20 00:44:43;;;;;;;0.90;0.60;;;;;;;;;;5113759;27;20227;-56
2022/04/20 00:47:30;;;;;;;0.73;0.73;;;;;;;;;;5117499;27;20252;-56
2022/04/20 00:50:17;;;;;;;0.50;0.50;;;;;;;;;;5105865;27;20252;-56
2022/04/20 00:53:05;;;;;;;0.50;0.50;;;;;;;;;;5120257;27;20300;-56
2022/04/20 00:55:51;;;;;;;0.70;0.70;;;;;;;;;;5118498;27;20810;-56
2022/04/20 00:58:40;;;;;;;0.70;0.70;;;;;;;;;;5112534;27;20264;-56
2022/04/20 01:01:28;;;;;;;0.80;0.80;;;;;;;;;;5110939;27;20293;-56
2022/04/20 01:04:15;;;;;;;0.60;0.60;;;;;;;;;;5109951;27;20243;-56
2022/04/20 01:07:10;;;;;;;0.50;0.50;;;;;;;;;;5116026;27;20246;-73
2022/04/20 01:09:57;;;;;;;0.50;0.50;;;;;;;;;;5117255;27;20207;-56
2022/04/20 01:12:45;;;;;;;0.77;0.77;;;;;;;;;;5116909;27;20333;-56
2022/04/20 01:15:34;;;;;;;0.60;0.60;;;;;;;;;;5112191;27;20235;-56
2022/04/20 01:18:22;;;;;;;0.60;0.60;;;;;;;;;;5122651;27;20216;-57
2022/04/20 01:21:11;;;;;;;0.80;0.80;;;;;;;;;;5116513;27;20248;-56
2022/04/20 01:23:58;;;;;;;0.67;0.67;;;;;;;;;;5109725;27;20218;-56
2022/04/20 01:26:45;;;;;;;0.67;0.67;;;;;;;;;;5105941;27;20246;-56
2022/04/20 01:29:33;;;;;;;0.73;0.73;;;;;;;;;;5111433;27;20204;-56
2022/04/20 01:32:20;;;;;;;0.70;0.70;;;;;;;;;;5105042;27;20236;-56
2022/04/20 01:35:08;;;;;;;1.00;1.00;;;;;;;;;;5110128;27;20235;-57
2022/04/20 01:37:56;;;;;;;0.90;0.90;;;;;;;;;;5117202;27;20220;-56
2022/04/20 01:40:43;;;;;;;0.60;0.60;;;;;;;;;;5118333;27;20267;-56
2022/04/20 01:43:30;;;;;;;0.70;0.70;;;;;;;;;;5114520;27;20212;-56
2022/04/20 01:46:17;;;;;;;0.80;0.80;;;;;;;;;;5111402;27;20338;-56
2022/04/20 01:49:04;;;;;;;0.80;0.80;;;;;;;;;;5112205;27;20330;-56
2022/04/20 01:51:51;;;;;;;0.90;0.90;;;;;;;;;;5115893;27;20210;-56
2022/04/20 01:54:39;;;;;;;0.93;0.93;;;;;;;;;;5114648;27;20314;-56
2022/04/20 01:57:26;;;;;;;0.67;0.67;;;;;;;;;;5112296;27;20271;-56
2022/04/20 02:00:16;;;;;;;0.83;0.83;;;;;;;;;;5116684;27;20272;-57
2022/04/20 02:03:02;;;;;;;0.73;0.73;;;;;;;;;;5120510;27;20208;-56
2022/04/20 02:05:49;;;;;;;1.67;1.13;;;;;;;;;;5119820;27;20202;-56
2022/04/20 02:08:36;;;;;;;0.80;0.80;;;;;;;;;;5114618;27;20714;-56
2022/04/20 02:11:25;;;;;;;0.77;0.77;;;;;;;;;;5112016;27;20284;-56
2022/04/20 02:14:12;;;;;;;0.60;0.60;;;;;;;;;;5119247;27;20228;-56
2022/04/20 02:16:58;;;;;;;0.83;0.83;;;;;;;;;;5114419;27;20276;-55
2022/04/20 02:19:45;;;;;;;0.77;0.77;;;;;;;;;;5126693;27;20626;-56
2022/04/20 02:22:32;;;;;;;0.93;0.93;;;;;;;;;;5111437;27;20295;-57
2022/04/20 02:25:19;;;;;;;0.83;0.83;;;;;;;;;;5114775;27;20281;-56
2022/04/20 02:28:08;;;;;;;0.77;0.77;;;;;;;;;;5112923;27;20338;-56
2022/04/20 02:30:54;;;;;;;0.70;0.70;;;;;;;;;;5119643;27;20245;-56
2022/04/20 02:33:41;;;;;;;0.83;0.70;;;;;;;;;;5116503;27;20211;-56
2022/04/20 02:36:29;;;;;;;0.50;0.50;;;;;;;;;;5119608;27;20242;-56
2022/04/20 02:39:16;;;;;;;0.70;0.70;;;;;;;;;;5113117;27;20628;-56
2022/04/20 02:42:04;;;;;;;0.63;0.63;;;;;;;;;;5111852;27;20208;-56
2022/04/20 02:44:52;;;;;;;0.90;0.90;;;;;;;;;;5098146;27;20234;-56
2022/04/20 02:47:39;;;;;;;1.00;1.00;;;;;;;;;;5094555;28;20676;-56
2022/04/20 02:50:27;;;;;;;0.80;0.80;;;;;;;;;;5096481;28;20272;-56
2022/04/20 02:53:14;;;;;;;0.87;0.87;;;;;;;;;;5088324;28;20300;-56
2022/04/20 02:56:01;;;;;;;0.80;0.80;;;;;;;;;;5079482;28;20239;-57
2022/04/20 02:58:48;;;;;;;0.70;0.70;;;;;;;;;;5092710;28;20659;-57
2022/04/20 03:01:38;;;;;;;0.60;0.60;;;;;;;;;;5097948;28;20218;-56
2022/04/20 03:04:25;;;;;;;0.70;0.60;;;;;;;;;;5100217;28;20204;-57
2022/04/20 03:07:12;;;;;;;0.50;0.50;;;;;;;;;;5096207;28;20243;-56
2022/04/20 03:09:59;;;;;;;0.73;0.73;;;;;;;;;;5102239;28;20330;-56
2022/04/20 03:12:46;;;;;;;0.80;0.80;;;;;;;;;;5095921;28;20867;-57
2022/04/20 03:15:33;;;;;;;0.80;0.80;;;;;;;;;;5095217;28;20231;-57
2022/04/20 03:18:21;;;;;;;0.80;0.80;;;;;;;;;;5104265;28;20208;-56
2022/04/20 03:21:08;;;;;;;1.13;0.70;;;;;;;;;;5102051;28;20251;-56
2022/04/20 03:23:55;;;;;;;0.83;0.83;;;;;;;;;;5100046;28;20276;-56
2022/04/20 03:26:42;;;;;;;1.70;1.00;;;;;;;;;;5102162;28;20279;-57
2022/04/20 03:29:29;;;;;;;0.90;0.80;;;;;;;;;;5093694;28;20539;-56
2022/04/20 03:32:17;;;;;;;0.90;0.90;;;;;;;;;;5098089;28;20560;-56
2022/04/20 03:35:05;;;;;;;0.70;0.70;;;;;;;;;;5092856;28;20852;-56
2022/04/20 03:37:52;;;;;;;0.90;0.80;;;;;;;;;;5097513;28;20289;-56
2022/04/20 03:40:40;;;;;;;0.70;0.70;;;;;;;;;;5099782;28;20285;-56
2022/04/20 03:43:28;;;;;;;1.00;1.00;;;;;;;;;;5095043;28;20287;-56
2022/04/20 03:46:14;;;;;;;0.90;0.90;;;;;;;;;;5099149;28;20203;-56
2022/04/20 03:49:01;;;;;;;0.80;0.80;;;;;;;;;;5092733;28;20325;-57
2022/04/20 03:51:50;;;;;;;1.10;1.10;;;;;;;;;;5101412;28;20332;-56
2022/04/20 03:54:37;;;;;;;0.80;0.80;;;;;;;;;;5084619;28;20276;-56
2022/04/20 03:57:24;;;;;;;1.20;1.13;;;;;;;;;;5089303;28;20233;-57
2022/04/20 04:00:12;;;;;;;0.87;0.87;;;;;;;;;;5105240;28;20681;-56
2022/04/20 04:02:59;;;;;;;0.97;0.97;;;;;;;;;;5097655;28;20215;-56
2022/04/20 04:05:46;;;;;;;1.63;1.17;;;;;;;;;;5101004;28;20285;-56
2022/04/20 04:08:34;;;;;;;0.77;0.77;;;;;;;;;;5085001;28;20229;-56
2022/04/20 04:11:21;;;;;;;0.93;0.93;;;;;;;;;;5106798;28;20289;-57
2022/04/20 04:14:08;;;;;;;0.93;0.93;;;;;;;;;;5093935;28;20701;-56
2022/04/20 04:16:55;;;;;;;0.80;0.80;;;;;;;;;;5090618;28;20270;-55
2022/04/20 04:19:42;;;;;;;0.80;0.80;;;;;;;;;;5095231;28;20582;-56
2022/04/20 04:22:29;;;;;;;0.67;0.67;;;;;;;;;;5088072;28;20294;-56
2022/04/20 04:25:17;;;;;;;0.80;0.80;;;;;;;;;;5094965;28;21133;-56
2022/04/20 04:28:04;;;;;;;1.00;1.00;;;;;;;;;;5101073;28;20222;-55
2022/04/20 04:30:52;;;;;;;0.90;0.90;;;;;;;;;;5093828;28;20211;-56
2022/04/20 04:33:38;;;;;;;1.00;1.00;;;;;;;;;;5092062;28;20210;-56
2022/04/20 04:36:25;;;;;;;1.13;1.10;;;;;;;;;;5089758;28;20364;-55
2022/04/20 04:39:14;;;;;;;1.13;1.13;;;;;;;;;;5094537;28;20257;-55
2022/04/20 04:42:02;;;;;;;1.23;1.10;;;;;;;;;;5098662;28;20671;-56
2022/04/20 04:44:49;;;;;;;1.00;1.00;;;;;;;;;;5093858;28;20231;-56
2022/04/20 04:50:40;;;;;;;1.10;1.10;;;;;;;;;;5095541;28;20218;-56
2022/04/20 04:53:27;;;;;;;1.20;1.10;;;;;;;;;;5092979;28;20708;-55
2022/04/20 04:56:14;;;;;;;1.50;1.40;;;;;;;;;;5097587;28;20709;-56
2022/04/20 04:59:03;;;;;;;1.27;1.17;;;;;;;;;;5099304;28;20294;-56
2022/04/20 05:01:50;;;;;;;1.10;1.10;;;;;;;;;;5093590;28;20783;-56
2022/04/20 05:04:39;;;;;;;0.90;0.90;;;;;;;;;;5095118;28;20691;-56
2022/04/20 05:07:26;;;;;;;1.40;1.30;;;;;;;;;;5097802;28;20272;-56
2022/04/20 05:10:13;;;;;;;0.83;0.83;;;;;;;;;;5091036;28;20289;-56
2022/04/20 05:13:00;;;;;;;1.43;1.00;;;;;;;;;;5091182;28;20740;-56
2022/04/20 05:15:49;;;;;;;2.50;1.00;;;;;;;;;;5085712;28;20238;-56
2022/04/20 05:18:36;;;;;;;1.00;1.00;;;;;;;;;;5094383;28;20707;-56
2022/04/20 05:21:23;;;;;;;1.10;1.10;;;;;;;;;;5097723;28;20356;-56
2022/04/20 05:24:10;;;;;;;1.10;1.10;;;;;;;;;;5102941;28;20873;-56
2022/04/20 05:26:57;;;;;;;1.60;0.90;;;;;;;;;;5091899;28;20239;-55
2022/04/20 05:29:44;;;;;;;1.20;1.10;;;;;;;;;;5092865;28;20294;-56
2022/04/20 05:32:33;;;;;;;1.27;1.10;;;;;;;;;;5097915;28;20215;-56
2022/04/20 05:35:20;;;;;;;1.87;0.77;;;;;;;;;;5090044;28;20717;-56
2022/04/20 05:44:16;;;;;;;0.80;0.80;;;;;;;;;;5103384;27;20237;-55
2022/04/20 05:47:04;;;;;;;2.63;1.17;;;;;;;;;;5105557;27;20207;-55
2022/04/20 05:49:52;;;;;;;0.90;0.90;;;;;;;;;;5117739;27;20343;-55
2022/04/20 05:52:39;;;;;;;1.50;1.00;;;;;;;;;;5114524;27;20751;-55
2022/04/20 05:55:26;;;;;;;1.03;0.93;;;;;;;;;;5118618;27;20265;-55
2022/04/20 05:58:13;;;;;;;0.70;0.70;;;;;;;;;;5119091;27;20342;-55
2022/04/20 06:01:00;;;;;;;1.37;0.97;;;;;;;;;;5107231;27;20209;-55
2022/04/20 06:03:47;;;;;;;1.00;1.00;;;;;;;;;;5116939;27;20339;-56
2022/04/20 06:06:35;;;;;;;1.10;1.00;;;;;;;;;;5115103;27;20286;-56
2022/04/20 06:09:22;;;;;;;0.95;0.93;;;;;;;;;;5119533;27;20216;-56
2022/04/20 06:12:09;;;;;;;1.02;0.80;;;;;;;;;;5112724;27;20420;-55
2022/04/20 06:14:56;;;;;;;0.70;0.70;;;;;;;;;;5118425;27;20312;-56
2022/04/20 06:17:43;;;;;;;1.00;0.82;;;;;;;;;;5119426;27;20245;-55
2022/04/20 06:20:30;;;;;;;0.77;0.77;;;;;;;;;;5120939;27;20395;-55
2022/04/20 06:23:20;;;;;;;0.80;0.80;;;;;;;;;;5123480;27;20345;-56
2022/04/20 06:26:08;;;;;;;0.98;0.68;;;;;;;;;;5109923;27;20207;-56
2022/04/20 06:28:55;;;;;;;0.70;0.70;;;;;;;;;;5114379;27;20213;-56
2022/04/20 06:31:44;;;;;;;0.90;0.90;;;;;;;;;;5121536;27;20684;-56
2022/04/20 06:34:31;;;;;;;0.70;0.70;;;;;;;;;;5112637;27;20288;-56
2022/04/20 06:37:19;;;;;;;0.65;0.63;;;;;;;;;;5119756;27;20241;-56
2022/04/20 06:40:09;;;;;;;0.98;0.98;;;;;;;;;;5109820;27;20269;-55
2022/04/20 06:42:56;;;;;;;1.15;1.02;;;;;;;;;;5112031;27;20217;-56
2022/04/20 06:45:44;;;;;;;0.60;0.60;;;;;;;;;;5115867;27;20222;-56
2022/04/20 06:48:31;;;;;;;0.50;0.50;;;;;;;;;;5109727;27;20300;-56
2022/04/20 06:51:18;;;;;;;0.63;0.63;;;;;;;;;;5111091;27;20229;-56
2022/04/20 07:00:16;;;;;;;0.60;0.60;;;;;;;;;;5114275;28;20257;-54
2022/04/20 07:03:06;;;;;;;0.73;0.68;;;;;;;;;;5121420;28;20213;-53
2022/04/20 07:05:53;;;;;;;0.52;0.52;;;;;;;;;;5118198;28;20209;-54
2022/04/20 07:08:40;;;;;;;0.73;0.73;;;;;;;;;;5116703;28;20288;-54
2022/04/20 07:11:28;;;;;;;0.60;0.60;;;;;;;;;;5112407;28;20202;-54
2022/04/20 07:14:16;;;;;;;0.60;0.60;;;;;;;;;;5110843;28;20771;-54
2022/04/20 07:17:04;;;;;;;0.60;0.60;;;;;;;;;;5125145;28;20228;-54
2022/04/20 07:19:51;;;;;;;0.70;0.70;;;;;;;;;;5117991;28;20205;-54
2022/04/20 07:22:38;;;;;;;0.60;0.60;;;;;;;;;;5108756;28;20277;-55
2022/04/20 07:25:25;;;;;;;0.60;0.60;;;;;;;;;;5115959;28;20209;-54
2022/04/20 07:28:12;;;;;;;1.48;0.70;;;;;;;;;;5113008;28;20244;-54
2022/04/20 07:31:02;;;;;;;0.50;0.50;;;;;;;;;;5113451;28;20284;-55
2022/04/20 07:33:49;;;;;;;0.40;0.40;;;;;;;;;;5112046;28;20280;-55
2022/04/20 07:36:36;;;;;;;0.50;0.50;;;;;;;;;;5113800;28;20305;-55
2022/04/20 07:39:23;;;;;;;0.57;0.57;;;;;;;;;;5109062;28;20238;-55
2022/04/20 07:42:10;;;;;;;0.50;0.50;;;;;;;;;;5106177;28;20261;-55
2022/04/20 07:44:58;;;;;;;0.60;0.60;;;;;;;;;;5104673;28;20380;-55
2022/04/20 07:47:46;;;;;;;0.50;0.50;;;;;;;;;;5098242;28;20209;-55
2022/04/20 07:50:33;;;;;;;0.50;0.50;;;;;;;;;;5090158;28;20203;-54
2022/04/20 07:53:20;;;;;;;1.40;0.80;;;;;;;;;;5095557;28;20258;-55
2022/04/20 07:56:07;;;;;;;0.60;0.60;;;;;;;;;;5093645;28;20311;-55
2022/04/20 07:58:54;;;;;;;1.15;0.57;;;;;;;;;;5091331;28;20294;-55
2022/04/20 08:01:41;;;;;;;1.85;0.70;;;;;;;;;;5093444;28;20567;-55
2022/04/20 08:04:29;;;;;;;0.65;0.65;;;;;;;;;;5095530;28;20203;-55
2022/04/20 08:07:16;;;;;;;0.63;0.63;;;;;;;;;;5093696;28;20295;-56
2022/04/20 08:10:03;;;;;;;0.52;0.52;;;;;;;;;;5096970;28;20312;-54
2022/04/20 08:12:50;;;;;;;0.60;0.60;;;;;;;;;;5099232;28;20736;-54
2022/04/20 08:15:37;;;;;;;0.63;0.63;;;;;;;;;;5100350;28;20227;-55
2022/04/20 08:18:25;;;;;;;0.88;0.60;;;;;;;;;;5093659;28;20202;-54
2022/04/20 08:21:13;;;;;;;0.70;0.70;;;;;;;;;;5090264;28;20283;-54
2022/04/20 08:24:00;;;;;;;0.52;0.52;;;;;;;;;;5094951;28;20227;-55
2022/04/20 08:26:47;;;;;;;0.70;0.70;;;;;;;;;;5093631;28;20213;-56
2022/04/20 08:29:34;;;;;;;0.85;0.77;;;;;;;;;;5103038;28;20264;-54
2022/04/20 08:32:21;;;;;;;0.88;0.50;;;;;;;;;;5092199;28;20244;-55
2022/04/20 08:35:09;;;;;;;0.60;0.60;;;;;;;;;;5095576;28;20221;-55
2022/04/20 08:37:57;;;;;;;0.70;0.70;;;;;;;;;;5096787;28;20202;-56
2022/04/20 08:40:44;;;;;;;0.63;0.63;;;;;;;;;;5092351;28;20291;-55
2022/04/20 08:43:32;;;;;;;0.50;0.50;;;;;;;;;;5096952;28;20202;-55
2022/04/20 08:46:19;;;;;;;0.47;0.47;;;;;;;;;;5098826;28;20227;-55
2022/04/20 08:49:07;;;;;;;0.63;0.63;;;;;;;;;;5098410;28;20716;-55
2022/04/20 08:55:01;;;;;;;0.70;0.70;;;;;;;;;;5102111;28;20206;-56
2022/04/20 08:57:49;;;;;;;0.85;0.52;;;;;;;;;;5101476;28;20695;-55
2022/04/20 09:00:36;;;;;;;0.68;0.60;;;;;;;;;;5092582;28;20300;-55
2022/04/20 09:03:24;;;;;;;0.98;0.65;;;;;;;;;;5089871;28;20226;-56
2022/04/20 09:06:11;;;;;;;0.45;0.40;;;;;;;;;;5090444;28;20213;-56
2022/04/20 09:08:58;;;;;;;0.70;0.70;;;;;;;;;;5103481;28;20210;-54
2022/04/20 09:11:49;;;;;;;1.50;0.70;;;;;;;;;;5083840;28;20208;-55
2022/04/20 09:14:36;;;;;;;0.60;0.60;;;;;;;;;;5092404;28;20311;-55
2022/04/20 09:17:26;;;;;;;0.68;0.60;;;;;;;;;;5091203;28;20224;-55
2022/04/20 09:20:17;;;;;;;0.77;0.77;;;;;;;;;;5099050;28;20205;-56
2022/04/20 09:23:07;;;;;;;0.70;0.70;;;;;;;;;;5094738;28;20208;-55
2022/04/20 09:25:54;;;;;;;0.60;0.60;;;;;;;;;;5095936;28;20213;-55
2022/04/20 09:29:05;;;;;;;0.50;0.50;;;;;;;;;;5102982;28;20320;-54
2022/04/20 09:31:53;;;;;;;0.55;0.55;;;;;;;;;;5084989;28;20211;-55
2022/04/20 09:34:54;;;;;;;0.50;0.50;;;;;;;;;;5098939;28;20205;-56
2022/04/20 09:37:42;;;;;;;0.55;0.50;;;;;;;;;;5092997;28;20216;-55
2022/04/20 09:40:33;;;;;;;0.50;0.50;;;;;;;;;;5100334;28;20212;-54
2022/04/20 09:43:22;;;;;;;0.45;0.45;;;;;;;;;;5096549;28;20215;-55
2022/04/20 09:49:12;;;;;;;0.35;0.35;;;;;;;;;;5098714;28;20549;-56
2022/04/20 09:52:10;;;;;;;0.52;0.52;;;;;;;;;;5090495;28;20275;-55
2022/04/20 09:54:57;;;;;;;0.60;0.60;;;;;;;;;;5092472;28;20205;-55
2022/04/20 09:57:44;;;;;;;0.40;0.40;;;;;;;;;;5085335;28;20245;-56
2022/04/20 10:00:38;;;;;;;0.40;0.40;;;;;;;;;;5094946;28;20362;-55
2022/04/20 10:03:28;;;;;;;0.60;0.60;;;;;;;;;;5091137;28;20206;-55
2022/04/20 10:06:14;;;;;;;0.40;0.40;;;;;;;;;;5085653;28;20297;-56
2022/04/20 10:09:03;;;;;;;0.40;0.40;;;;;;;;;;5097194;28;20266;-55
2022/04/20 10:11:50;;;;;;;0.57;0.57;;;;;;;;;;5087682;28;20209;-55
2022/04/20 10:17:46;;;;;;;0.63;0.63;;;;;;;;;;5095788;28;20237;-56
2022/04/20 10:20:35;;;;;;;0.47;0.47;;;;;;;;;;5104762;28;20737;-55
2022/04/20 10:23:23;;;;;;;0.60;0.60;;;;;;;;;;5092289;28;20273;-55
2022/04/20 10:26:11;;;;;;;0.52;0.52;;;;;;;;;;5088839;28;20236;-55
2022/04/20 10:29:09;;;;;;;0.50;0.50;;;;;;;;;;5093841;28;20296;-56
2022/04/20 10:32:01;;;;;;;0.52;0.52;;;;;;;;;;5068769;28;20250;-55
2022/04/20 10:34:49;;;;;;;0.57;0.57;;;;;;;;;;5078316;28;20216;-56
2022/04/20 10:37:39;;;;;;;0.65;0.57;;;;;;;;;;5096130;28;20713;-56
2022/04/20 10:40:26;;;;;;;0.57;0.57;;;;;;;;;;5096545;28;20207;-56
2022/04/20 10:43:20;;;;;;;0.50;0.50;;;;;;;;;;5090192;28;20336;-55
2022/04/20 10:46:11;;;;;;;0.50;0.50;;;;;;;;;;5087908;28;20214;-55
2022/04/20 10:49:02;;;;;;;0.50;0.50;;;;;;;;;;5072662;28;20286;-55
2022/04/20 10:51:49;;;;;;;1.07;0.40;;;;;;;;;;5090370;28;20213;-55
2022/04/20 10:54:50;;;;;;;0.50;0.50;;;;;;;;;;5088029;28;20204;-54
2022/04/20 10:57:39;;;;;;;1.00;0.40;;;;;;;;;;5087564;28;20520;-55
2022/04/20 11:00:34;;;;;;;0.40;0.40;;;;;;;;;;5088057;28;20737;-55
2022/04/20 11:03:21;;;;;;;0.40;0.30;;;;;;;;;;5087107;28;20208;-55
2022/04/20 11:06:08;;;;;;;0.40;0.40;;;;;;;;;;5095706;28;20676;-60
2022/04/20 11:08:59;;;;;;;0.50;0.50;;;;;;;;;;5093418;28;20290;-55
2022/04/20 11:21:23;;;;;;;0.60;0.60;;;;;;;;;;5089780;28;20241;-55
2022/04/20 11:24:11;;;;;;;0.60;0.60;;;;;;;;;;5085426;28;20655;-55
2022/04/20 11:26:59;;;;;;;0.47;0.47;;;;;;;;;;5091769;28;20199;-55
2022/04/20 11:29:48;;;;;;;0.60;0.60;;;;;;;;;;5091177;28;20320;-56
2022/04/20 11:32:35;;;;;;;0.50;0.50;;;;;;;;;;5092800;28;20295;-55
2022/04/20 11:35:22;;;;;;;0.60;0.60;;;;;;;;;;5089580;28;20679;-55
2022/04/20 11:38:10;;;;;;;0.40;0.40;;;;;;;;;;5085018;28;20584;-55
2022/04/20 11:40:57;;;;;;;1.10;0.50;;;;;;;;;;5092755;28;20218;-64
2022/04/20 11:43:47;;;;;;;0.40;0.40;;;;;;;;;;5093272;27;20240;-56
2022/04/20 11:46:34;;;;;;;0.50;0.50;;;;;;;;;;5111113;27;20202;-56
2022/04/20 11:49:21;;;;;;;0.60;0.60;;;;;;;;;;5112425;27;20206;-57
2022/04/20 11:52:11;;;;;;;0.40;0.40;;;;;;;;;;5104655;27;20239;-56
2022/04/20 11:55:05;;;;;;;0.57;0.57;;;;;;;;;;5109937;27;20216;-56
2022/04/20 11:57:52;;;;;;;0.43;0.43;;;;;;;;;;5102184;27;20558;-55
2022/04/20 12:00:41;;;;;;;0.40;0.40;;;;;;;;;;5114881;27;20682;-57
2022/04/20 12:03:31;;;;;;;0.50;0.50;;;;;;;;;;5111612;27;20216;-56
2022/04/20 12:06:18;;;;;;;0.60;0.60;;;;;;;;;;5110685;27;20211;-57
2022/04/20 12:09:07;;;;;;;0.57;0.50;;;;;;;;;;5112869;27;20702;-56
2022/04/20 12:11:56;;;;;;;0.60;0.60;;;;;;;;;;5115067;27;20238;-56
2022/04/20 12:14:43;;;;;;;0.50;0.50;;;;;;;;;;5110720;27;20207;-56
2022/04/20 12:17:31;;;;;;;0.43;0.43;;;;;;;;;;5111003;27;20213;-56
2022/04/20 12:20:18;;;;;;;0.40;0.40;;;;;;;;;;5106772;27;20699;-56
2022/04/20 12:23:06;;;;;;;0.50;0.50;;;;;;;;;;5108696;27;20868;-56
2022/04/20 12:25:53;;;;;;;0.87;0.50;;;;;;;;;;5110761;27;20221;-56
2022/04/20 12:28:44;;;;;;;0.53;0.53;;;;;;;;;;5111922;27;20285;-56
2022/04/20 12:31:31;;;;;;;0.57;0.50;;;;;;;;;;5110732;27;20199;-55
2022/04/20 12:34:20;;;;;;;0.30;0.30;;;;;;;;;;5109063;27;20617;-56
2022/04/20 12:37:15;;;;;;;0.50;0.50;;;;;;;;;;5106332;27;20276;-55
2022/04/20 12:40:20;;;;;;;0.50;0.50;;;;;;;;;;5107932;27;20212;-56
2022/04/20 12:43:08;;;;;;;0.50;0.50;;;;;;;;;;5110179;27;20239;-56
2022/04/20 12:46:13;;;;;;;0.30;0.30;;;;;;;;;;5108723;27;20730;-56
2022/04/20 12:49:00;;;;;;;0.40;0.40;;;;;;;;;;5111469;27;20194;-56
2022/04/20 12:51:48;;;;;;;0.50;0.50;;;;;;;;;;5108665;27;20614;-56
2022/04/20 12:54:36;;;;;;;0.30;0.30;;;;;;;;;;5113265;27;20288;-56
2022/04/20 13:03:40;;;;;;;1.43;0.50;;;;;;;;;;5109401;27;20637;-57
2022/04/20 13:06:27;;;;;;;0.80;0.80;;;;;;;;;;5111556;27;20804;-55
2022/04/20 13:09:15;;;;;;;0.50;0.50;;;;;;;;;;5107289;27;20247;-56
2022/04/20 13:12:04;;;;;;;0.40;0.40;;;;;;;;;;5110006;27;20620;-56
2022/04/20 13:14:51;;;;;;;0.53;0.43;;;;;;;;;;5119579;27;20216;-56
2022/04/20 13:17:38;;;;;;;1.50;0.60;;;;;;;;;;5115761;27;20369;-56
2022/04/20 13:20:27;;;;;;;0.70;0.70;;;;;;;;;;5114545;27;20200;-56
2022/04/20 13:23:14;;;;;;;1.63;0.60;;;;;;;;;;5118601;27;20222;-55
2022/04/20 13:29:07;;;;;;;0.60;0.60;;;;;;;;;;5117255;27;20293;-60
2022/04/20 13:31:55;;;;;;;0.30;0.30;;;;;;;;;;5113062;27;20195;-56
2022/04/20 13:34:42;;;;;;;1.30;0.50;;;;;;;;;;5113072;27;20211;-56
2022/04/20 13:37:29;;;;;;;1.40;0.80;;;;;;;;;;5110355;27;20224;-56
2022/04/20 13:40:16;;;;;;;0.50;0.50;;;;;;;;;;5115971;27;20237;-56
2022/04/20 13:43:05;;;;;;;0.90;0.57;;;;;;;;;;5117686;27;20220;-55
2022/04/20 13:45:52;;;;;;;0.47;0.47;;;;;;;;;;5093323;28;20244;-56
2022/04/20 13:48:40;;;;;;;0.40;0.40;;;;;;;;;;5085847;28;20343;-55
2022/04/20 13:51:28;;;;;;;0.50;0.50;;;;;;;;;;5092196;28;20255;-55
2022/04/20 13:54:15;;;;;;;0.40;0.40;;;;;;;;;;5095008;28;20225;-56
2022/04/20 13:57:03;;;;;;;1.60;0.60;;;;;;;;;;5090695;28;20200;-56
2022/04/20 13:59:51;;;;;;;0.57;0.40;;;;;;;;;;5092814;28;20734;-57
2022/04/20 14:02:39;;;;;;;1.20;0.40;;;;;;;;;;5087246;28;20746;-56
2022/04/20 14:05:27;;;;;;;0.50;0.50;;;;;;;;;;5091561;28;20327;-56
2022/04/20 14:08:14;;;;;;;0.60;0.60;;;;;;;;;;5095452;28;20203;-56
2022/04/20 14:11:02;;;;;;;0.50;0.50;;;;;;;;;;5098153;28;20232;-56
2022/04/20 14:13:50;;;;;;;0.43;0.40;;;;;;;;;;5093416;28;20335;-57
2022/04/20 14:16:41;;;;;;;1.43;0.60;;;;;;;;;;5088893;28;20294;-56
2022/04/20 14:19:28;;;;;;;0.47;0.47;;;;;;;;;;5094762;28;20222;-56
2022/04/20 14:22:15;;;;;;;0.40;0.40;;;;;;;;;;5087804;28;20210;-57
2022/04/20 14:34:16;;;;;;;0.50;0.50;;;;;;;;;;5093171;28;20196;-56
2022/04/20 14:37:04;;;;;;;0.50;0.50;;;;;;;;;;5089423;28;20328;-56
2022/04/20 14:39:50;;;;;;;0.50;0.50;;;;;;;;;;5089345;28;20701;-56
2022/04/20 14:42:38;;;;;;;0.67;0.40;;;;;;;;;;5092025;28;20293;-56
2022/04/20 14:45:26;;;;;;;0.53;0.53;;;;;;;;;;5103145;28;20493;-56
2022/04/20 14:48:13;;;;;;;0.53;0.53;;;;;;;;;;5107123;27;20210;-56
2022/04/20 14:51:01;;;;;;;0.50;0.50;;;;;;;;;;5109017;27;20296;-57
2022/04/20 14:53:48;;;;;;;0.50;0.50;;;;;;;;;;5106129;27;20383;-56
2022/04/20 14:56:35;;;;;;;0.70;0.70;;;;;;;;;;5113239;27;20276;-56
2022/04/20 14:59:22;;;;;;;0.50;0.50;;;;;;;;;;5113060;27;20311;-57
2022/04/20 15:02:14;;;;;;;0.57;0.57;;;;;;;;;;5109038;28;20616;-56
2022/04/20 15:05:01;;;;;;;0.67;0.53;;;;;;;;;;5107941;28;20291;-56
2022/04/20 15:07:51;;;;;;;0.40;0.40;;;;;;;;;;5108879;28;20276;-56
2022/04/20 15:10:38;;;;;;;0.50;0.50;;;;;;;;;;5112378;28;20207;-56
2022/04/20 15:13:26;;;;;;;0.37;0.37;;;;;;;;;;5109540;27;20293;-56
2022/04/20 15:16:12;;;;;;;0.40;0.40;;;;;;;;;;5121138;27;20202;-56
2022/04/20 15:18:59;;;;;;;0.60;0.50;;;;;;;;;;5122307;27;20357;-57
2022/04/20 15:21:48;;;;;;;0.30;0.30;;;;;;;;;;5123518;27;20290;-56
2022/04/20 15:24:36;;;;;;;0.40;0.40;;;;;;;;;;5117804;27;20203;-57
2022/04/20 15:27:23;;;;;;;0.53;0.47;;;;;;;;;;5116788;27;20693;-56
2022/04/20 15:30:11;;;;;;;0.43;0.43;;;;;;;;;;5115018;27;20193;-56
2022/04/20 15:32:58;;;;;;;0.57;0.57;;;;;;;;;;5114785;27;20269;-56
2022/04/20 15:35:44;;;;;;;0.40;0.40;;;;;;;;;;5117038;27;20339;-56
2022/04/20 15:38:35;;;;;;;0.53;0.53;;;;;;;;;;5124459;27;20229;-56
2022/04/20 15:41:23;;;;;;;0.40;0.40;;;;;;;;;;5110965;27;20685;-56
2022/04/20 15:44:10;;;;;;;0.50;0.50;;;;;;;;;;5109866;27;20488;-57
2022/04/20 15:46:57;;;;;;;0.53;0.53;;;;;;;;;;5112819;27;20203;-55
2022/04/20 15:49:44;;;;;;;1.43;0.60;;;;;;;;;;5108963;27;20344;-56
2022/04/20 15:52:31;;;;;;;0.50;0.50;;;;;;;;;;5107564;27;20328;-55
2022/04/20 16:01:28;;;;;;;0.60;0.60;;;;;;;;;;5112752;27;20398;-59
2022/04/20 16:04:15;;;;;;;1.03;0.30;;;;;;;;;;5112144;27;20203;-57
2022/04/20 16:07:03;;;;;;;0.50;0.50;;;;;;;;;;5112373;27;20677;-56
2022/04/20 16:09:50;;;;;;;0.53;0.53;;;;;;;;;;5108973;27;20274;-59
2022/04/20 16:12:38;;;;;;;0.63;0.63;;;;;;;;;;5114106;27;20291;-56
2022/04/20 16:15:26;;;;;;;0.50;0.50;;;;;;;;;;5110884;27;20548;-55
2022/04/20 16:18:13;;;;;;;0.50;0.50;;;;;;;;;;5112644;27;20211;-56
2022/04/20 16:21:01;;;;;;;0.60;0.60;;;;;;;;;;5106167;27;20290;-56
2022/04/20 16:23:48;;;;;;;0.50;0.50;;;;;;;;;;5110785;27;20197;-56
2022/04/20 16:26:35;;;;;;;0.70;0.70;;;;;;;;;;5118262;27;20279;-56
2022/04/20 16:29:22;;;;;;;0.70;0.70;;;;;;;;;;5116622;27;20613;-56
2022/04/20 16:32:11;;;;;;;0.50;0.50;;;;;;;;;;5118324;27;20210;-55
2022/04/20 16:34:58;;;;;;;0.60;0.60;;;;;;;;;;5114019;27;20284;-55
2022/04/20 16:37:45;;;;;;;0.60;0.60;;;;;;;;;;5117233;27;20300;-56
2022/04/20 16:40:32;;;;;;;0.53;0.53;;;;;;;;;;5110198;27;20283;-56
2022/04/20 16:43:19;;;;;;;0.57;0.57;;;;;;;;;;5112338;27;20285;-56
2022/04/20 16:46:06;;;;;;;0.70;0.70;;;;;;;;;;5112759;27;20285;-56
2022/04/20 16:48:54;;;;;;;0.53;0.53;;;;;;;;;;5112762;27;20291;-55
2022/04/20 16:51:41;;;;;;;0.40;0.40;;;;;;;;;;5112639;27;20373;-56
2022/04/20 16:54:29;;;;;;;0.80;0.53;;;;;;;;;;5105989;27;20201;-56
2022/04/20 16:57:16;;;;;;;0.47;0.40;;;;;;;;;;5111766;27;20210;-55
2022/04/20 17:00:05;;;;;;;0.60;0.60;;;;;;;;;;5111093;27;20713;-55
2022/04/20 17:02:52;;;;;;;0.70;0.70;;;;;;;;;;5113923;27;20202;-56
2022/04/20 17:05:41;;;;;;;0.90;0.90;;;;;;;;;;5116283;27;20746;-56
2022/04/20 17:08:28;;;;;;;0.67;0.67;;;;;;;;;;5109882;27;20249;-56
2022/04/20 17:11:16;;;;;;;0.40;0.40;;;;;;;;;;5111313;27;20197;-55
2022/04/20 17:14:04;;;;;;;0.80;0.80;;;;;;;;;;5113138;27;20202;-56
2022/04/20 17:16:51;;;;;;;0.57;0.57;;;;;;;;;;5112265;27;20255;-56
2022/04/20 17:19:38;;;;;;;0.50;0.50;;;;;;;;;;5112891;27;20340;-57
2022/04/20 17:28:35;;;;;;;0.60;0.60;;;;;;;;;;5118298;27;20205;-55
2022/04/20 17:31:22;;;;;;;0.60;0.60;;;;;;;;;;5110327;27;20560;-55
2022/04/20 17:34:09;;;;;;;0.73;0.73;;;;;;;;;;5098366;27;20292;-55
2022/04/20 17:36:57;;;;;;;0.60;0.60;;;;;;;;;;5118336;27;20269;-56
2022/04/20 17:39:45;;;;;;;0.57;0.57;;;;;;;;;;5117200;27;20300;-56
2022/04/20 17:42:33;;;;;;;0.70;0.70;;;;;;;;;;5117012;27;20287;-56
2022/04/20 17:45:22;;;;;;;0.70;0.60;;;;;;;;;;5117308;27;20240;-55
2022/04/20 17:48:09;;;;;;;0.73;0.73;;;;;;;;;;5118484;27;20676;-56
2022/04/20 17:50:56;;;;;;;0.67;0.67;;;;;;;;;;5115477;27;20199;-59